createdAt,value
2022-08-27T00:04:16.978Z,6.10
2022-08-27T00:14:23.603Z,5.70
2022-08-27T00:24:29.985Z,5.80
2022-08-27T00:34:37.284Z,6.00
2022-08-27T00:44:43.782Z,6.30
2022-08-27T00:54:52.023Z,6.10
2022-08-27T01:05:06.408Z,6.20
2022-08-27T01:15:19.993Z,6.00
2022-08-27T01:25:26.808Z,6.30
2022-08-27T01:35:34.300Z,6.20
2022-08-27T01:45:50.904Z,5.90
2022-08-27T01:55:58.288Z,6.30
2022-08-27T02:06:07.538Z,6.00
2022-08-27T02:16:14.881Z,6.10
2022-08-27T02:26:21.225Z,6.10
2022-08-27T02:36:27.598Z,6.70
2022-08-27T02:46:33.975Z,6.80
2022-08-27T02:56:40.671Z,6.70
2022-08-27T03:06:48.375Z,6.80
2022-08-27T03:16:54.740Z,6.90
2022-08-27T03:27:01.145Z,6.60
2022-08-27T03:37:07.488Z,7.10
2022-08-27T03:47:13.934Z,6.80
2022-08-27T03:57:20.289Z,6.90
2022-08-27T04:07:26.628Z,7.00
2022-08-27T04:17:33.379Z,6.90
2022-08-27T04:27:40.027Z,7.10
2022-08-27T04:37:46.403Z,7.40
2022-08-27T04:47:52.750Z,7.00
2022-08-27T04:57:59.635Z,7.60
2022-08-27T05:08:07.533Z,8.90
2022-08-27T05:18:14.612Z,7.50
2022-08-27T05:28:27.903Z,7.60
2022-08-27T05:38:35.631Z,7.80
2022-08-27T05:48:42.960Z,9.40
2022-08-27T05:59:08.940Z,8.80
2022-08-27T06:09:19.483Z,10.30
2022-08-27T06:19:25.783Z,10.00
2022-08-27T06:29:32.167Z,10.20
2022-08-27T06:39:40.595Z,9.90
2022-08-27T06:49:47.020Z,9.70
2022-08-27T06:59:53.316Z,8.00
2022-08-27T07:10:00.263Z,8.90
2022-08-27T07:20:07.387Z,10.60
2022-08-27T07:30:14.826Z,9.50
2022-08-27T07:40:21.469Z,12.80
2022-08-27T07:50:27.952Z,12.60
2022-08-27T08:00:35.071Z,11.70
2022-08-27T08:10:44.706Z,11.80
2022-08-27T08:20:58.214Z,11.50
2022-08-27T08:31:06.290Z,11.00
2022-08-27T08:41:27.762Z,10.70
2022-08-27T08:51:42.278Z,13.00
2022-08-27T09:01:50.873Z,13.00
2022-08-27T09:12:02.782Z,11.70
2022-08-27T09:22:44.513Z,10.90
2022-08-27T09:32:57.507Z,10.70
2022-08-27T09:43:23.526Z,11.70
2022-08-27T09:53:34.114Z,11.70
2022-08-27T10:03:40.523Z,11.20
2022-08-27T10:13:55.753Z,11.20
2022-08-27T10:24:33.502Z,10.00
2022-08-27T10:34:42.680Z,7.40
2022-08-27T10:45:30.958Z,6.70
2022-08-27T10:55:53.702Z,7.10
2022-08-27T11:06:03.939Z,7.00
2022-08-27T11:16:20.463Z,6.90
2022-08-27T11:26:26.754Z,5.50
2022-08-27T11:36:45.023Z,4.80
2022-08-27T11:47:09.656Z,5.50
2022-08-27T11:57:31.636Z,5.40
2022-08-27T12:07:41.683Z,5.30
2022-08-27T12:18:22.509Z,4.90
2022-08-27T12:28:29.541Z,5.10
2022-08-27T12:38:54.752Z,5.00
2022-08-27T12:49:12.765Z,5.20
2022-08-27T12:59:43.315Z,5.20
2022-08-27T13:09:49.638Z,5.00
2022-08-27T13:20:01.005Z,4.90
2022-08-27T13:30:09.877Z,4.80
2022-08-27T13:40:34.213Z,5.60
2022-08-27T13:50:49.414Z,5.70
2022-08-27T14:00:56.983Z,5.50
2022-08-27T14:11:09.193Z,6.60
2022-08-27T14:21:15.539Z,5.10
2022-08-27T14:31:23.720Z,5.50
2022-08-27T14:41:30.093Z,5.50
2022-08-27T14:51:42.094Z,5.70
2022-08-27T15:01:48.646Z,6.20
2022-08-27T15:11:55.512Z,6.90
2022-08-27T15:22:06.885Z,8.00
2022-08-27T15:32:29.756Z,10.00
2022-08-27T15:42:36.086Z,10.80
2022-08-27T15:52:42.938Z,12.50
2022-08-27T16:02:49.870Z,6.80
2022-08-27T16:12:56.250Z,7.10
2022-08-27T16:23:02.721Z,7.50
2022-08-27T16:33:10.902Z,7.70
2022-08-27T16:43:22.012Z,7.40
2022-08-27T16:53:28.623Z,6.40
2022-08-27T17:04:07.019Z,6.20
2022-08-27T17:14:11.919Z,6.60
2022-08-27T17:24:19.025Z,7.00
2022-08-27T17:34:26.724Z,6.90
2022-08-27T17:44:36.221Z,6.70
2022-08-27T17:54:45.990Z,7.50
2022-08-27T18:04:52.643Z,7.20
2022-08-27T18:15:14.522Z,7.60
2022-08-27T18:25:24.063Z,7.30
2022-08-27T18:35:32.882Z,7.30
2022-08-27T18:45:40.600Z,7.70
2022-08-27T18:55:47.613Z,7.40
2022-08-27T19:05:54.951Z,7.40
2022-08-27T19:16:05.419Z,7.20
2022-08-27T19:26:20.747Z,16.50
2022-08-27T19:36:26.045Z,8.70
2022-08-27T19:46:36.869Z,8.70
2022-08-27T19:56:43.270Z,9.80
2022-08-27T20:06:50.142Z,8.90
2022-08-27T20:16:56.495Z,9.40
2022-08-27T20:27:02.967Z,9.00
2022-08-27T20:37:09.358Z,9.60
2022-08-27T20:47:17.343Z,9.20
2022-08-27T20:57:23.687Z,9.40
2022-08-27T21:07:29.978Z,9.10
2022-08-27T21:17:36.280Z,8.80
2022-08-27T21:27:42.992Z,9.40
2022-08-27T21:37:49.358Z,9.30
2022-08-27T21:47:56.101Z,9.40
2022-08-27T21:58:02.459Z,10.10
2022-08-27T22:08:09.070Z,9.60
2022-08-27T22:18:15.861Z,9.50
2022-08-27T22:28:22.418Z,11.00
2022-08-27T22:38:28.831Z,11.10
2022-08-27T22:48:35.186Z,10.40
2022-08-27T22:58:45.903Z,11.30
2022-08-27T23:08:52.727Z,11.10
2022-08-27T23:18:59.111Z,11.20
2022-08-27T23:29:06.488Z,10.90
2022-08-27T23:39:12.946Z,10.60
2022-08-27T23:49:19.251Z,10.70
2022-08-27T23:59:29.917Z,10.60
